createdAt,value
2023-04-16T00:02:04.168Z,8.77
2023-04-16T00:04:31.293Z,8.94
2023-04-16T00:06:58.290Z,8.98
2023-04-16T00:09:25.308Z,8.99
2023-04-16T00:11:52.341Z,9.01
2023-04-16T00:14:19.657Z,9.07
2023-04-16T00:16:46.930Z,8.97
2023-04-16T00:19:13.850Z,8.89
2023-04-16T00:21:40.714Z,8.93
2023-04-16T00:24:07.688Z,8.89
2023-04-16T00:26:34.703Z,8.93
2023-04-16T00:29:01.870Z,8.98
2023-04-16T00:31:30.720Z,8.92
2023-04-16T00:33:58.698Z,8.87
2023-04-16T00:36:27.513Z,8.80
2023-04-16T00:38:55.776Z,8.81
2023-04-16T00:41:26.461Z,8.78
2023-04-16T00:43:53.488Z,8.76
2023-04-16T00:46:23.550Z,8.74
2023-04-16T00:48:52.518Z,8.77
2023-04-16T00:51:21.470Z,8.80
2023-04-16T00:53:48.752Z,8.74
2023-04-16T00:56:17.713Z,8.65
2023-04-16T00:58:45.026Z,8.64
2023-04-16T01:03:53.327Z,8.66
2023-04-16T01:06:20.914Z,8.70
2023-04-16T01:08:48.789Z,8.63
2023-04-16T01:11:16.573Z,8.56
2023-04-16T01:13:43.598Z,8.54
2023-04-16T01:16:12.484Z,8.49
2023-04-16T01:18:39.794Z,8.54
2023-04-16T01:21:07.172Z,8.50
2023-04-16T01:23:34.210Z,8.42
2023-04-16T01:26:01.221Z,8.49
2023-04-16T01:28:28.062Z,8.34
2023-04-16T01:30:54.990Z,8.34
2023-04-16T01:33:22.076Z,8.43
2023-04-16T01:35:49.059Z,8.33
2023-04-16T01:38:15.968Z,8.40
2023-04-16T01:40:42.820Z,8.36
2023-04-16T01:43:09.662Z,8.39
2023-04-16T01:45:36.701Z,8.39
2023-04-16T01:48:04.542Z,8.41
2023-04-16T01:50:32.018Z,8.33
2023-04-16T01:52:58.893Z,8.39
2023-04-16T01:55:26.981Z,8.18
2023-04-16T01:57:53.820Z,8.16
2023-04-16T02:00:20.691Z,8.22
2023-04-16T02:02:49.458Z,8.24
2023-04-16T02:05:16.781Z,8.28
2023-04-16T02:07:43.658Z,8.22
2023-04-16T02:10:10.895Z,8.08
2023-04-16T02:12:37.796Z,8.04
2023-04-16T02:15:05.471Z,8.08
2023-04-16T02:17:32.484Z,8.30
2023-04-16T02:19:59.408Z,8.22
2023-04-16T02:22:26.245Z,8.20
2023-04-16T02:24:53.118Z,8.15
2023-04-16T02:27:19.917Z,8.29
2023-04-16T02:29:46.821Z,8.22
2023-04-16T02:32:13.949Z,8.26
2023-04-16T02:34:41.763Z,8.30
2023-04-16T02:37:08.600Z,8.32
2023-04-16T02:39:35.546Z,8.26
2023-04-16T02:42:02.938Z,8.22
2023-04-16T02:44:29.879Z,8.21
2023-04-16T02:46:56.730Z,8.22
2023-04-16T02:49:23.655Z,8.20
2023-04-16T02:51:50.609Z,8.15
2023-04-16T02:54:17.528Z,8.19
2023-04-16T02:56:44.361Z,8.19
2023-04-16T02:59:11.344Z,8.25
2023-04-16T03:01:38.412Z,8.22
2023-04-16T03:04:05.675Z,8.23
2023-04-16T03:06:32.807Z,8.15
2023-04-16T03:08:59.656Z,8.22
2023-04-16T03:11:26.661Z,8.17
2023-04-16T03:13:53.995Z,8.15
2023-04-16T03:16:20.963Z,8.04
2023-04-16T03:18:47.831Z,7.92
2023-04-16T03:21:14.729Z,7.87
2023-04-16T03:23:41.738Z,7.91
2023-04-16T03:26:08.621Z,7.83
2023-04-16T03:28:35.520Z,7.72
2023-04-16T03:31:02.395Z,7.66
2023-04-16T03:33:29.474Z,7.64
2023-04-16T03:35:57.466Z,7.60
2023-04-16T03:38:26.258Z,7.65
2023-04-16T03:40:53.122Z,7.53
2023-04-16T03:43:20.079Z,7.52
2023-04-16T03:45:47.928Z,7.48
2023-04-16T03:48:16.050Z,7.36
2023-04-16T03:50:47.071Z,7.43
2023-04-16T03:53:14.217Z,7.42
2023-04-16T03:55:44.327Z,7.42
2023-04-16T03:58:12.538Z,7.29
2023-04-16T04:00:42.599Z,7.26
2023-04-16T04:03:10.706Z,7.24
2023-04-16T04:05:41.389Z,7.28
2023-04-16T04:08:08.990Z,7.33
2023-04-16T04:10:36.376Z,7.30
2023-04-16T04:13:04.533Z,7.31
2023-04-16T04:15:31.954Z,7.30
2023-04-16T04:17:59.844Z,7.46
2023-04-16T04:20:26.858Z,7.44
2023-04-16T04:22:53.670Z,7.64
2023-04-16T04:25:20.501Z,7.54
2023-04-16T04:27:47.416Z,7.47
2023-04-16T04:30:14.318Z,7.47
2023-04-16T04:32:41.173Z,7.68
2023-04-16T04:35:08.390Z,7.68
2023-04-16T04:37:35.289Z,7.81
2023-04-16T04:40:02.169Z,8.00
2023-04-16T04:42:29.037Z,8.04
2023-04-16T04:44:56.136Z,8.10
2023-04-16T04:47:23.061Z,8.26
2023-04-16T04:49:49.877Z,8.29
2023-04-16T04:52:16.730Z,8.23
2023-04-16T04:54:43.517Z,8.29
2023-04-16T04:57:10.308Z,8.53
2023-04-16T04:59:37.177Z,8.45
2023-04-16T05:02:04.209Z,8.67
2023-04-16T05:04:31.510Z,8.76
2023-04-16T05:06:58.507Z,8.66
2023-04-16T05:09:25.487Z,8.67
2023-04-16T05:11:52.499Z,8.48
2023-04-16T05:14:19.451Z,8.67
2023-04-16T05:16:46.386Z,9.13
2023-04-16T05:19:13.410Z,9.63
2023-04-16T05:21:40.461Z,9.94
2023-04-16T05:24:07.343Z,10.19
2023-04-16T05:26:34.170Z,9.90
2023-04-16T05:29:01.278Z,9.73
2023-04-16T05:31:28.132Z,9.71
2023-04-16T05:33:54.934Z,9.73
2023-04-16T05:36:21.751Z,9.40
2023-04-16T05:38:48.602Z,9.54
2023-04-16T05:41:15.757Z,9.73
2023-04-16T05:43:42.632Z,9.65
2023-04-16T05:46:09.482Z,9.56
2023-04-16T05:48:36.366Z,9.37
2023-04-16T05:51:03.407Z,9.57
2023-04-16T05:53:30.283Z,9.53
2023-04-16T05:55:57.138Z,9.69
2023-04-16T05:58:24.006Z,9.91
2023-04-16T06:00:51.452Z,10.01
2023-04-16T06:03:18.388Z,10.13
2023-04-16T06:05:45.386Z,10.28
2023-04-16T06:08:12.193Z,10.57
2023-04-16T06:10:39.510Z,10.66
2023-04-16T06:13:06.392Z,10.69
2023-04-16T06:15:33.210Z,10.80
2023-04-16T06:18:01.044Z,10.94
2023-04-16T06:20:28.137Z,11.18
2023-04-16T06:22:56.178Z,11.26
2023-04-16T06:25:23.188Z,11.55
2023-04-16T06:27:50.087Z,11.61
2023-04-16T06:30:17.091Z,11.51
2023-04-16T06:32:44.622Z,11.61
2023-04-16T06:35:11.773Z,11.73
2023-04-16T06:37:38.839Z,12.05
2023-04-16T06:40:06.377Z,12.15
2023-04-16T06:42:33.378Z,12.30
2023-04-16T06:45:00.817Z,12.34
2023-04-16T06:47:27.670Z,12.46
2023-04-16T06:49:54.565Z,12.79
2023-04-16T06:52:21.364Z,13.11
2023-04-16T06:54:48.827Z,13.35
2023-04-16T06:57:16.434Z,13.52
2023-04-16T06:59:43.245Z,13.76
2023-04-16T07:02:11.007Z,14.00
2023-04-16T07:04:37.989Z,14.30
2023-04-16T07:07:04.829Z,14.57
2023-04-16T07:09:31.644Z,14.94
2023-04-16T07:11:58.561Z,15.21
2023-04-16T07:14:25.500Z,15.29
2023-04-16T07:16:52.332Z,15.61
2023-04-16T07:19:19.306Z,15.93
2023-04-16T07:21:46.743Z,16.39
2023-04-16T07:24:13.964Z,16.47
2023-04-16T07:26:41.208Z,16.53
2023-04-16T07:29:08.453Z,16.04
2023-04-16T07:31:35.681Z,16.53
2023-04-16T07:34:02.664Z,16.71
2023-04-16T07:36:29.541Z,17.12
2023-04-16T07:38:56.525Z,17.68
2023-04-16T07:41:23.882Z,17.86
2023-04-16T07:43:51.069Z,18.13
2023-04-16T07:46:17.946Z,18.63
2023-04-16T07:48:44.846Z,19.08
2023-04-16T07:51:11.781Z,18.83
2023-04-16T07:53:38.606Z,19.47
2023-04-16T07:56:05.753Z,19.47
2023-04-16T07:58:32.566Z,19.37
2023-04-16T08:00:59.479Z,19.53
2023-04-16T08:03:26.765Z,20.65
2023-04-16T08:05:53.778Z,20.10
2023-04-16T08:08:20.652Z,20.06
2023-04-16T08:10:47.639Z,20.02
2023-04-16T08:13:14.439Z,20.64
2023-04-16T08:15:41.622Z,20.97
2023-04-16T08:18:13.128Z,20.20
2023-04-16T08:20:39.970Z,20.70
2023-04-16T08:23:06.873Z,21.12
2023-04-16T08:25:33.831Z,21.35
2023-04-16T08:28:00.891Z,21.85
2023-04-16T08:30:28.771Z,21.86
2023-04-16T08:32:55.810Z,22.04
2023-04-16T08:35:23.246Z,21.36
2023-04-16T08:37:50.061Z,22.28
2023-04-16T08:40:17.430Z,22.22
2023-04-16T08:42:54.542Z,22.81
2023-04-16T08:45:21.660Z,22.47
2023-04-16T08:47:50.673Z,21.92
2023-04-16T08:50:22.938Z,22.28
2023-04-16T08:52:53.884Z,21.62
2023-04-16T08:55:31.107Z,20.96
2023-04-16T08:58:02.190Z,20.63
2023-04-16T09:00:31.827Z,21.78
2023-04-16T09:02:59.208Z,21.37
2023-04-16T09:05:27.932Z,21.55
2023-04-16T09:07:54.876Z,21.44
2023-04-16T09:10:22.337Z,21.06
2023-04-16T09:12:49.199Z,21.14
2023-04-16T09:15:16.001Z,20.30
2023-04-16T09:17:42.890Z,20.95
2023-04-16T09:20:11.279Z,22.09
2023-04-16T09:22:40.152Z,22.31
2023-04-16T09:25:07.749Z,22.68
2023-04-16T09:27:34.618Z,21.12
2023-04-16T09:30:01.605Z,21.40
2023-04-16T09:32:29.359Z,22.34
2023-04-16T09:35:01.269Z,21.39
2023-04-16T09:37:31.660Z,21.37
2023-04-16T09:40:04.952Z,20.70
2023-04-16T09:42:34.364Z,21.57
2023-04-16T09:45:03.483Z,20.82
2023-04-16T09:47:43.257Z,22.02
2023-04-16T09:50:17.728Z,22.07
2023-04-16T09:52:48.722Z,20.53
2023-04-16T09:55:15.606Z,21.49
2023-04-16T09:57:42.592Z,22.10
2023-04-16T10:00:10.706Z,22.39
2023-04-16T10:02:42.142Z,22.40
2023-04-16T10:05:09.811Z,22.96
2023-04-16T10:07:37.741Z,23.78
2023-04-16T10:10:05.086Z,23.29
2023-04-16T10:12:33.058Z,22.84
2023-04-16T10:15:00.059Z,23.34
2023-04-16T10:17:30.202Z,23.81
2023-04-16T10:19:58.548Z,23.87
2023-04-16T10:22:26.697Z,23.90
2023-04-16T10:24:54.279Z,23.48
2023-04-16T10:27:21.433Z,23.03
2023-04-16T10:29:49.162Z,22.92
2023-04-16T10:32:18.424Z,23.18
2023-04-16T10:34:45.793Z,22.74
2023-04-16T10:37:12.877Z,22.70
2023-04-16T10:39:39.749Z,22.89
2023-04-16T10:42:13.598Z,22.94
2023-04-16T10:44:43.458Z,22.97
2023-04-16T10:47:13.180Z,23.04
2023-04-16T10:49:40.761Z,22.77
2023-04-16T10:52:12.660Z,22.27
2023-04-16T10:54:40.874Z,22.35
2023-04-16T10:57:12.365Z,22.37
2023-04-16T10:59:43.317Z,22.18
2023-04-16T11:02:18.370Z,22.45
2023-04-16T11:04:49.524Z,22.76
2023-04-16T11:07:21.637Z,23.05
2023-04-16T11:10:04.445Z,22.72
2023-04-16T11:12:34.362Z,22.27
2023-04-16T11:15:02.853Z,22.13
2023-04-16T11:17:38.154Z,21.92
2023-04-16T11:20:20.975Z,22.47
2023-04-16T11:22:55.785Z,22.78
2023-04-16T11:25:29.637Z,22.65
2023-04-16T11:27:59.065Z,22.36
2023-04-16T11:30:31.123Z,22.17
2023-04-16T11:32:58.149Z,21.85
2023-04-16T11:35:25.370Z,21.73
2023-04-16T11:37:56.628Z,21.60
2023-04-16T11:40:23.683Z,21.78
2023-04-16T11:42:50.903Z,21.76
2023-04-16T11:45:19.545Z,21.65
2023-04-16T11:47:55.591Z,22.25
2023-04-16T11:50:27.350Z,22.51
2023-04-16T11:53:03.354Z,22.53
2023-04-16T11:55:30.459Z,22.55
2023-04-16T11:57:57.326Z,22.20
2023-04-16T12:00:24.997Z,22.03
2023-04-16T12:02:54.950Z,21.93
2023-04-16T12:05:30.424Z,21.92
2023-04-16T12:07:58.545Z,21.55
2023-04-16T12:10:25.958Z,21.62
2023-04-16T12:12:52.831Z,21.54
2023-04-16T12:15:19.730Z,21.53
2023-04-16T12:17:46.635Z,21.26
2023-04-16T12:20:17.836Z,21.07
2023-04-16T12:22:49.865Z,20.56
2023-04-16T12:25:18.347Z,20.53
2023-04-16T12:27:54.130Z,20.40
2023-04-16T12:30:24.358Z,20.22
2023-04-16T12:33:14.057Z,20.09
2023-04-16T12:35:43.537Z,19.94
2023-04-16T12:38:10.936Z,19.70
2023-04-16T12:40:38.854Z,19.83
2023-04-16T12:43:05.737Z,19.78
2023-04-16T12:45:32.574Z,19.78
2023-04-16T12:47:59.664Z,19.64
2023-04-16T12:50:26.677Z,19.72
2023-04-16T12:52:53.549Z,19.62
2023-04-16T12:55:20.440Z,19.58
2023-04-16T12:57:49.067Z,19.49
2023-04-16T13:00:16.499Z,19.66
2023-04-16T13:02:43.514Z,19.60
2023-04-16T13:05:10.591Z,19.63
2023-04-16T13:07:37.551Z,19.49
2023-04-16T13:10:06.419Z,19.40
2023-04-16T13:12:33.261Z,19.44
2023-04-16T13:15:00.207Z,19.35
2023-04-16T13:17:27.031Z,19.39
2023-04-16T13:19:53.871Z,19.30
2023-04-16T13:22:20.902Z,19.27
2023-04-16T13:24:47.825Z,19.21
2023-04-16T13:27:16.217Z,19.17
2023-04-16T13:29:43.170Z,19.01
2023-04-16T13:32:10.206Z,18.89
2023-04-16T13:34:37.263Z,18.75
2023-04-16T13:37:04.089Z,18.80
2023-04-16T13:39:31.017Z,18.65
2023-04-16T13:41:57.830Z,18.63
2023-04-16T13:44:24.697Z,18.65
2023-04-16T13:46:51.920Z,18.63
2023-04-16T13:49:19.588Z,18.61
2023-04-16T13:51:46.421Z,18.62
2023-04-16T13:54:13.687Z,18.64
2023-04-16T13:56:40.983Z,18.69
2023-04-16T13:59:08.330Z,18.58
2023-04-16T14:01:35.562Z,18.63
2023-04-16T14:04:06.770Z,18.72
2023-04-16T14:06:35.009Z,18.67
2023-04-16T14:09:02.283Z,18.71
2023-04-16T14:11:29.125Z,18.73
2023-04-16T14:13:56.272Z,18.67
2023-04-16T14:16:23.375Z,18.55
2023-04-16T14:18:52.104Z,18.54
2023-04-16T14:21:19.333Z,18.67
2023-04-16T14:23:46.205Z,18.79
2023-04-16T14:26:13.235Z,18.71
2023-04-16T14:28:41.406Z,18.73
2023-04-16T14:31:08.589Z,18.70
2023-04-16T14:33:35.504Z,18.78
2023-04-16T14:36:03.302Z,18.71
2023-04-16T14:38:31.480Z,18.76
2023-04-16T14:40:58.433Z,18.81
2023-04-16T14:43:25.286Z,18.80
2023-04-16T14:45:52.889Z,18.80
2023-04-16T14:48:19.807Z,18.73
2023-04-16T14:50:46.762Z,18.70
2023-04-16T14:53:13.982Z,18.76
2023-04-16T14:55:40.893Z,18.73
2023-04-16T14:58:07.903Z,18.77
2023-04-16T15:00:35.786Z,18.78
2023-04-16T15:03:03.060Z,18.41
2023-04-16T15:05:30.525Z,18.34
2023-04-16T15:07:57.515Z,18.31
2023-04-16T15:10:24.417Z,18.31
2023-04-16T15:12:51.313Z,18.28
2023-04-16T15:15:18.245Z,18.31
2023-04-16T15:17:45.226Z,18.28
2023-04-16T15:20:13.156Z,18.27
2023-04-16T15:22:40.373Z,18.14
2023-04-16T15:25:07.756Z,18.04
2023-04-16T15:27:34.732Z,17.65
2023-04-16T15:30:01.595Z,17.80
2023-04-16T15:32:28.648Z,17.70
2023-04-16T15:34:55.491Z,17.67
2023-04-16T15:37:22.388Z,17.73
2023-04-16T15:39:49.896Z,17.54
2023-04-16T15:42:16.788Z,17.49
2023-04-16T15:44:43.647Z,17.51
2023-04-16T15:47:10.476Z,17.44
2023-04-16T15:49:37.327Z,17.40
2023-04-16T15:52:04.404Z,17.31
2023-04-16T15:54:31.985Z,17.34
2023-04-16T15:56:59.135Z,17.23
2023-04-16T15:59:27.214Z,17.19
2023-04-16T16:01:54.330Z,17.22
2023-04-16T16:04:26.507Z,17.09
2023-04-16T16:06:53.933Z,17.09
2023-04-16T16:09:26.533Z,16.93
2023-04-16T16:11:58.514Z,16.92
2023-04-16T16:14:26.920Z,16.89
2023-04-16T16:16:53.863Z,16.76
2023-04-16T16:19:20.857Z,16.84
2023-04-16T16:21:47.637Z,16.74
2023-04-16T16:24:14.686Z,16.65
2023-04-16T16:26:41.616Z,16.60
2023-04-16T16:29:08.566Z,16.53
2023-04-16T16:31:35.657Z,16.43
2023-04-16T16:34:02.815Z,16.36
2023-04-16T16:36:29.970Z,16.19
2023-04-16T16:38:57.123Z,16.12
2023-04-16T16:41:24.014Z,16.08
2023-04-16T16:43:51.175Z,16.04
2023-04-16T16:46:18.046Z,16.00
2023-04-16T16:48:45.099Z,15.95
2023-04-16T16:51:11.944Z,15.93
2023-04-16T16:53:38.744Z,15.89
2023-04-16T16:56:05.957Z,15.81
2023-04-16T16:58:33.117Z,15.76
2023-04-16T17:01:00.069Z,15.76
2023-04-16T17:03:27.158Z,15.73
2023-04-16T17:05:56.587Z,15.70
2023-04-16T17:08:23.961Z,15.60
2023-04-16T17:10:51.242Z,15.35
2023-04-16T17:13:21.328Z,15.28
2023-04-16T17:15:48.150Z,15.05
2023-04-16T17:18:15.119Z,15.00
2023-04-16T17:20:42.024Z,14.67
2023-04-16T17:23:08.875Z,14.77
2023-04-16T17:25:35.800Z,14.60
2023-04-16T17:28:03.243Z,14.23
2023-04-16T17:30:31.375Z,13.76
2023-04-16T17:32:58.438Z,13.63
2023-04-16T17:35:25.858Z,13.15
2023-04-16T17:37:52.697Z,13.15
2023-04-16T17:40:19.627Z,12.99
2023-04-16T17:42:46.461Z,12.94
2023-04-16T17:45:13.753Z,13.07
2023-04-16T17:47:41.042Z,13.31
2023-04-16T17:50:11.605Z,13.34
2023-04-16T17:52:38.536Z,13.36
2023-04-16T17:55:06.666Z,13.32
2023-04-16T17:57:34.037Z,13.36
2023-04-16T18:00:00.821Z,13.39
2023-04-16T18:02:27.811Z,13.35
2023-04-16T18:04:54.913Z,13.35
2023-04-16T18:07:21.890Z,13.27
2023-04-16T18:09:48.849Z,13.26
2023-04-16T18:12:16.515Z,13.21
2023-04-16T18:14:44.918Z,13.17
2023-04-16T18:17:11.947Z,13.24
2023-04-16T18:19:40.655Z,13.18
2023-04-16T18:22:07.669Z,13.22
2023-04-16T18:24:36.617Z,13.16
2023-04-16T18:27:04.064Z,13.17
2023-04-16T18:29:33.902Z,13.20
2023-04-16T18:32:04.264Z,13.11
2023-04-16T18:34:31.865Z,13.18
2023-04-16T18:36:58.700Z,13.24
2023-04-16T18:39:25.855Z,13.19
2023-04-16T18:41:52.790Z,13.24
2023-04-16T18:44:20.100Z,13.16
2023-04-16T18:46:47.095Z,13.13
2023-04-16T18:49:14.142Z,12.83
2023-04-16T18:51:42.164Z,12.95
2023-04-16T18:54:09.397Z,12.81
2023-04-16T18:56:36.337Z,12.93
2023-04-16T18:59:03.240Z,12.95
2023-04-16T19:01:30.136Z,12.97
2023-04-16T19:03:57.319Z,12.99
2023-04-16T19:06:24.347Z,12.98
2023-04-16T19:08:51.386Z,12.95
2023-04-16T19:11:18.266Z,12.93
2023-04-16T19:13:45.266Z,13.03
2023-04-16T19:16:12.536Z,12.98
2023-04-16T19:18:39.538Z,12.99
2023-04-16T19:21:07.314Z,13.01
2023-04-16T19:23:34.338Z,13.06
2023-04-16T19:26:01.753Z,12.98
2023-04-16T19:28:28.895Z,13.03
2023-04-16T19:30:56.299Z,13.06
2023-04-16T19:33:23.173Z,13.00
2023-04-16T19:35:50.145Z,12.98
2023-04-16T19:38:17.167Z,12.90
2023-04-16T19:40:46.731Z,12.89
2023-04-16T19:43:14.383Z,12.89
2023-04-16T19:45:52.506Z,12.81
2023-04-16T19:48:20.583Z,12.76
2023-04-16T19:50:48.046Z,12.86
2023-04-16T19:53:17.304Z,12.85
2023-04-16T19:55:44.318Z,12.88
2023-04-16T19:58:11.265Z,12.84
2023-04-16T20:00:41.149Z,12.84
2023-04-16T20:03:08.323Z,12.87
2023-04-16T20:05:35.386Z,12.70
2023-04-16T20:08:02.333Z,12.73
2023-04-16T20:10:31.585Z,12.66
2023-04-16T20:12:58.747Z,12.68
2023-04-16T20:15:25.997Z,12.69
2023-04-16T20:17:53.504Z,12.56
2023-04-16T20:20:22.741Z,12.49
2023-04-16T20:22:49.639Z,12.48
2023-04-16T20:25:19.135Z,12.47
2023-04-16T20:27:46.371Z,12.42
2023-04-16T20:30:15.068Z,12.47
2023-04-16T20:32:41.918Z,12.40
2023-04-16T20:35:11.386Z,12.37
2023-04-16T20:37:38.814Z,12.33
2023-04-16T20:40:08.455Z,12.44
2023-04-16T20:42:35.591Z,12.39
2023-04-16T20:45:02.697Z,12.25
2023-04-16T20:47:29.597Z,12.28
2023-04-16T20:49:56.537Z,12.20
2023-04-16T20:52:23.437Z,12.19
2023-04-16T20:54:52.440Z,12.16
2023-04-16T20:57:19.417Z,12.14
2023-04-16T20:59:46.382Z,12.21
2023-04-16T21:02:14.021Z,12.24
2023-04-16T21:04:41.089Z,12.01
2023-04-16T21:07:08.079Z,12.05
2023-04-16T21:09:34.884Z,12.04
2023-04-16T21:12:01.968Z,11.99
2023-04-16T21:14:28.849Z,11.87
2023-04-16T21:16:55.718Z,11.90
2023-04-16T21:19:22.688Z,11.97
2023-04-16T21:21:49.610Z,12.00
2023-04-16T21:24:16.658Z,11.99
2023-04-16T21:26:43.459Z,12.04
2023-04-16T21:29:10.456Z,11.88
2023-04-16T21:31:37.448Z,11.93
2023-04-16T21:34:04.351Z,11.93
2023-04-16T21:36:33.196Z,11.97
2023-04-16T21:38:59.969Z,11.96
2023-04-16T21:41:26.963Z,11.90
2023-04-16T21:43:53.939Z,11.94
2023-04-16T21:46:21.478Z,11.97
2023-04-16T21:48:48.641Z,12.01
2023-04-16T21:51:15.939Z,12.02
2023-04-16T21:53:42.774Z,11.97
2023-04-16T21:56:09.694Z,11.91
2023-04-16T21:58:36.667Z,12.03
2023-04-16T22:01:03.543Z,12.05
2023-04-16T22:03:31.251Z,11.97
2023-04-16T22:06:01.259Z,12.07
2023-04-16T22:08:29.104Z,12.11
2023-04-16T22:11:01.703Z,12.01
2023-04-16T22:13:32.591Z,12.01
2023-04-16T22:16:02.716Z,11.99
2023-04-16T22:18:33.097Z,12.02
2023-04-16T22:21:00.252Z,11.86
2023-04-16T22:23:27.150Z,11.73
2023-04-16T22:25:55.535Z,11.68
2023-04-16T22:28:23.212Z,11.68
2023-04-16T22:30:50.108Z,11.65
2023-04-16T22:33:17.052Z,11.66
2023-04-16T22:35:43.937Z,11.61
2023-04-16T22:38:10.901Z,11.71
2023-04-16T22:40:37.865Z,11.66
2023-04-16T22:43:05.530Z,11.64
2023-04-16T22:45:32.367Z,11.68
2023-04-16T22:47:59.349Z,11.73
2023-04-16T22:50:26.282Z,11.75
2023-04-16T22:52:53.084Z,11.78
2023-04-16T22:55:20.033Z,11.82
2023-04-16T22:57:47.679Z,11.88
2023-04-16T23:00:18.303Z,11.86
2023-04-16T23:02:45.762Z,11.86
2023-04-16T23:05:12.697Z,11.93
2023-04-16T23:07:39.612Z,11.96
2023-04-16T23:10:08.818Z,11.91
2023-04-16T23:12:38.943Z,12.01
2023-04-16T23:15:06.967Z,11.90
2023-04-16T23:17:34.066Z,11.96
2023-04-16T23:20:01.106Z,11.98
2023-04-16T23:22:28.166Z,12.01
2023-04-16T23:24:55.092Z,12.03
2023-04-16T23:27:22.079Z,12.04
2023-04-16T23:29:49.002Z,12.05
2023-04-16T23:32:15.923Z,11.97
2023-04-16T23:34:42.775Z,11.99
2023-04-16T23:37:09.749Z,12.00
2023-04-16T23:39:36.594Z,12.06
2023-04-16T23:42:03.557Z,12.01
2023-04-16T23:44:30.773Z,12.01
2023-04-16T23:46:57.702Z,11.91
2023-04-16T23:49:25.248Z,11.91
2023-04-16T23:51:52.344Z,11.94
2023-04-16T23:54:19.486Z,11.86
2023-04-16T23:56:46.507Z,11.75
2023-04-16T23:59:13.891Z,11.68
